Time;durP1;ratioP1;P1;durP2;ratioP2;P2;SDS_P1;SDS_P2;PMS_P1;PMS_P2;Temp;Humidity;BMP_temperature;BMP_pressure;BME280_temperature;BME280_humidity;BME280_pressure;Samples;Min_cycle;Max_cycle;Signal;HPM_P1;HPM_P2
2022/07/09 04:33:06;;;;;;;;;8.00;6.75;;;;;20.74;53.00;102452.53;5022378;27;45417;-69
2022/07/09 04:35:32;;;;;;;;;8.50;7.25;;;;;20.68;53.21;102446.53;5017439;28;45270;-71
2022/07/09 04:37:57;;;;;;;;;8.25;7.75;;;;;20.65;53.48;102447.63;5016005;28;45252;-71
2022/07/09 04:40:23;;;;;;;;;7.75;7.75;;;;;20.63;53.72;102446.84;5017750;28;45387;-73
2022/07/09 04:42:48;;;;;;;;;8.00;8.00;;;;;20.59;53.68;102447.09;5017207;28;45331;-73
2022/07/09 04:45:13;;;;;;;;;3.75;3.75;;;;;20.54;53.67;102444.66;5017210;28;45266;-73
2022/07/09 04:47:39;;;;;;;;;6.75;6.75;;;;;20.47;53.86;102435.13;5019044;28;45475;-72
2022/07/09 04:50:05;;;;;;;;;10.75;8.50;;;;;20.45;54.03;102428.88;5037457;28;45385;-71
2022/07/09 04:52:30;;;;;;;;;8.50;8.50;;;;;20.48;53.68;102453.22;5036614;28;46369;-71
2022/07/09 04:54:56;;;;;;;;;4.50;4.50;;;;;20.36;53.72;102432.16;5036989;28;45293;-71
2022/07/09 04:57:21;;;;;;;;;5.75;5.75;;;;;20.48;53.63;102441.44;5036868;28;45313;-71
2022/07/09 04:59:47;;;;;;;;;8.50;8.50;;;;;20.44;53.89;102427.13;5037253;28;45335;-71
2022/07/09 05:02:13;;;;;;;;;7.00;7.00;;;;;20.50;53.93;102443.09;5036729;28;45314;-72
2022/07/09 05:04:39;;;;;;;;;7.00;7.00;;;;;20.52;53.53;102443.00;5026447;28;45372;-71
2022/07/09 05:07:05;;;;;;;;;6.75;6.75;;;;;20.58;54.00;102448.09;5016626;28;45248;-72
2022/07/09 05:09:31;;;;;;;;;6.25;6.25;;;;;20.49;53.98;102446.81;5016953;28;46274;-72
2022/07/09 05:11:56;;;;;;;;;10.50;7.00;;;;;20.47;53.78;102447.88;5015250;28;46221;-71
2022/07/09 05:14:21;;;;;;;;;6.25;6.25;;;;;20.43;54.16;102449.88;5016864;28;45499;-70
2022/07/09 05:16:47;;;;;;;;;11.50;10.25;;;;;20.41;54.25;102451.84;5017004;28;45521;-72
2022/07/09 05:19:13;;;;;;;;;7.00;7.00;;;;;20.32;54.61;102455.97;5016821;28;45385;-72
2022/07/09 05:21:42;;;;;;;;;10.25;9.00;;;;;20.31;54.54;102459.66;5015228;28;46333;-71
2022/07/09 05:24:07;;;;;;;;;9.25;9.25;;;;;20.20;54.53;102434.88;5016421;28;45434;-72
2022/07/09 05:26:34;;;;;;;;;7.00;7.00;;;;;20.37;54.64;102442.09;5016715;28;45392;-72
2022/07/09 05:28:59;;;;;;;;;7.25;7.25;;;;;20.42;54.44;102459.00;5015120;28;45475;-70
2022/07/09 05:31:24;;;;;;;;;8.25;8.25;;;;;20.40;54.29;102444.63;5016294;28;45332;-70
2022/07/09 05:33:51;;;;;;;;;8.00;8.00;;;;;20.49;54.49;102456.81;5016550;28;45307;-72
2022/07/09 05:36:17;;;;;;;;;8.75;7.00;;;;;20.53;54.31;102450.19;5016829;28;45318;-72
2022/07/09 05:38:42;;;;;;;;;8.25;8.25;;;;;20.52;54.16;102445.72;5014751;28;46389;-72
2022/07/09 05:41:10;;;;;;;;;7.75;7.75;;;;;20.57;54.29;102458.13;5016357;28;45382;-73
2022/07/09 05:43:35;;;;;;;;;9.50;8.50;;;;;20.62;53.74;102445.06;5016551;28;45387;-71
2022/07/09 05:46:00;;;;;;;;;7.25;7.25;;;;;20.62;54.18;102447.81;5015638;28;45446;-72
2022/07/09 05:48:26;;;;;;;;;9.25;8.00;;;;;20.71;53.79;102446.38;5016662;28;45481;-68
2022/07/09 05:50:51;;;;;;;;;7.00;7.00;;;;;20.68;53.83;102439.25;5014715;28;47582;-71
2022/07/09 05:53:17;;;;;;;;;8.25;8.25;;;;;20.74;53.93;102446.19;5016036;28;45384;-71
2022/07/09 05:55:42;;;;;;;;;5.75;4.25;;;;;20.71;53.93;102436.34;5016179;28;45327;-71
2022/07/09 05:58:07;;;;;;;;;8.75;7.50;;;;;20.72;54.04;102446.28;5016043;28;50634;-71
2022/07/09 06:00:33;;;;;;;;;9.25;8.00;;;;;20.76;54.06;102446.94;5016126;28;45375;-71
2022/07/09 06:02:58;;;;;;;;;6.50;6.50;;;;;20.81;54.14;102452.13;5017895;28;45450;-71
2022/07/09 06:05:23;;;;;;;;;9.50;9.50;;;;;20.82;54.11;102442.97;5032670;28;45554;-72
2022/07/09 06:07:49;;;;;;;;;9.00;7.00;;;;;20.77;53.88;102435.06;5015744;28;45226;-71
2022/07/09 06:10:16;;;;;;;;;7.75;7.75;;;;;20.87;53.72;102451.75;5015885;28;45943;-71
2022/07/09 06:12:42;;;;;;;;;8.75;7.50;;;;;20.94;53.83;102451.25;5015733;28;45230;-69
2022/07/09 06:15:09;;;;;;;;;10.50;9.25;;;;;21.01;53.56;102455.34;5015824;28;45357;-70
2022/07/09 06:17:34;;;;;;;;;8.25;8.25;;;;;21.01;53.20;102447.16;5015904;28;45265;-71
2022/07/09 06:20:00;;;;;;;;;9.75;9.75;;;;;21.04;53.52;102449.72;5015294;28;45931;-70
2022/07/09 06:22:25;;;;;;;;;9.50;8.25;;;;;21.03;53.28;102436.19;5015587;28;45375;-69
2022/07/09 06:24:50;;;;;;;;;10.00;9.00;;;;;21.16;53.61;102448.06;5015616;28;45436;-71
2022/07/09 06:27:16;;;;;;;;;9.50;8.25;;;;;21.18;53.32;102442.56;5016273;28;45299;-69
2022/07/09 06:29:41;;;;;;;;;12.25;11.25;;;;;21.22;53.36;102455.03;5015749;28;45990;-69
2022/07/09 06:32:07;;;;;;;;;6.25;6.25;;;;;21.21;53.00;102440.50;5015592;28;45490;-68
2022/07/09 06:34:33;;;;;;;;;8.50;8.50;;;;;21.36;53.57;102446.81;5014448;28;45511;-68
2022/07/09 06:36:58;;;;;;;;;8.00;8.00;;;;;21.49;53.06;102448.69;5015172;28;46249;-69
2022/07/09 06:42:07;;;;;;;;;9.75;8.00;;;;;21.63;52.95;102441.44;5015375;28;45314;-70
2022/07/09 06:44:34;;;;;;;;;10.75;9.25;;;;;21.64;52.62;102437.72;5015388;28;45355;-71
2022/07/09 06:47:00;;;;;;;;;13.00;11.00;;;;;21.73;52.40;102445.31;5010759;28;45532;-68
2022/07/09 06:49:25;;;;;;;;;13.25;10.00;;;;;21.89;52.07;102454.25;5009195;28;46378;-69
2022/07/09 06:51:51;;;;;;;;;14.50;11.50;;;;;22.01;51.46;102447.13;5014918;28;45383;-68
2022/07/09 06:54:16;;;;;;;;;10.50;10.50;;;;;22.16;51.50;102446.97;5015179;28;45251;-72
2022/07/09 06:56:41;;;;;;;;;6.75;6.75;;;;;22.26;51.14;102453.56;5013993;28;45450;-70
2022/07/09 06:59:07;;;;;;;;;7.50;6.50;;;;;22.33;50.79;102444.94;5014895;28;45507;-69
2022/07/09 07:01:32;;;;;;;;;9.25;9.25;;;;;22.40;50.85;102446.28;5014368;28;45253;-70
2022/07/09 07:03:57;;;;;;;;;10.25;8.00;;;;;22.45;50.73;102431.34;5024705;28;45688;-70
2022/07/09 07:06:23;;;;;;;;;11.25;10.50;;;;;22.52;50.33;102438.13;5023591;28;54460;-69
2022/07/09 07:08:48;;;;;;;;;11.75;11.75;;;;;22.54;49.82;102443.50;5014624;28;46139;-69
2022/07/09 07:11:14;;;;;;;;;11.00;9.25;;;;;22.59;50.01;102444.03;5014873;28;46977;-69
2022/07/09 07:13:39;;;;;;;;;12.00;9.50;;;;;22.59;50.39;102433.09;5015233;28;45416;-70
2022/07/09 07:16:05;;;;;;;;;11.00;11.00;;;;;22.68;50.09;102440.66;5014987;28;45371;-70
2022/07/09 07:18:30;;;;;;;;;7.75;7.75;;;;;22.74;49.87;102440.25;5014910;28;45414;-69
2022/07/09 07:20:55;;;;;;;;;9.00;7.00;;;;;22.76;49.81;102443.75;5014904;28;45320;-69
2022/07/09 07:23:21;;;;;;;;;2.00;2.00;;;;;22.83;49.41;102444.19;5014669;28;45371;-71
2022/07/09 07:25:46;;;;;;;;;8.00;8.00;;;;;22.86;49.62;102438.53;5014487;28;45387;-70
2022/07/09 07:28:11;;;;;;;;;7.00;7.00;;;;;22.90;49.55;102438.19;5014828;28;47510;-69
2022/07/09 07:30:37;;;;;;;;;8.00;8.00;;;;;22.98;49.35;102438.50;5013638;28;45400;-70
2022/07/09 07:33:02;;;;;;;;;10.25;10.25;;;;;23.00;49.34;102443.88;5013097;28;45352;-69
2022/07/09 07:35:28;;;;;;;;;6.75;6.75;;;;;23.03;49.04;102440.94;5014383;28;45484;-70
2022/07/09 07:37:53;;;;;;;;;13.75;11.50;;;;;22.91;49.29;102412.59;5014112;28;45412;-69
2022/07/09 07:40:18;;;;;;;;;11.00;11.00;;;;;23.05;48.95;102441.72;5014608;28;45221;-70
2022/07/09 07:42:44;;;;;;;;;11.00;9.50;;;;;22.97;48.89;102431.28;5014957;28;45211;-70
2022/07/09 07:45:10;;;;;;;;;10.00;10.00;;;;;22.99;49.12;102436.66;5014583;28;45454;-70
2022/07/09 07:47:36;;;;;;;;;8.25;8.25;;;;;23.09;48.89;102453.28;5013024;28;47199;-71
2022/07/09 07:50:03;;;;;;;;;12.75;11.50;;;;;23.10;48.85;102442.25;5014525;28;45300;-69
2022/07/09 07:52:28;;;;;;;;;10.75;9.00;;;;;23.23;49.03;102444.97;5014068;28;45648;-69
2022/07/09 07:54:53;;;;;;;;;9.50;8.75;;;;;23.23;48.36;102440.34;5014093;28;45576;-69
2022/07/09 07:57:19;;;;;;;;;9.25;9.25;;;;;23.18;48.77;102430.75;5012706;28;46424;-69
2022/07/09 07:59:46;;;;;;;;;7.25;7.25;;;;;23.20;48.09;102426.03;5014402;28;45445;-70
2022/07/09 08:02:11;;;;;;;;;9.50;9.50;;;;;23.25;48.23;102430.19;5014423;28;45445;-70
2022/07/09 08:04:37;;;;;;;;;8.25;8.25;;;;;23.34;48.35;102434.13;5028465;28;45517;-71
2022/07/09 08:07:02;;;;;;;;;9.75;9.75;;;;;23.37;48.59;102433.91;5017341;28;46331;-71
2022/07/09 08:09:27;;;;;;;;;11.25;9.75;;;;;23.34;47.63;102437.72;5019318;28;45390;-69
2022/07/09 08:11:53;;;;;;;;;10.00;7.00;;;;;23.31;47.57;102439.81;5020854;28;45880;-70
2022/07/09 08:14:18;;;;;;;;;8.25;8.25;;;;;23.31;47.90;102437.94;5020851;28;45308;-68
2022/07/09 08:16:43;;;;;;;;;7.25;7.25;;;;;23.33;48.03;102427.75;5020573;28;45988;-69
2022/07/09 08:19:09;;;;;;;;;6.00;6.00;;;;;23.43;48.17;102436.19;5020873;28;45266;-69
2022/07/09 08:21:34;;;;;;;;;9.00;9.00;;;;;23.49;47.48;102434.88;5020706;28;45154;-71
2022/07/09 08:24:00;;;;;;;;;6.50;6.50;;;;;23.55;48.52;102431.72;5018967;28;45343;-70
2022/07/09 08:26:26;;;;;;;;;8.00;7.75;;;;;23.55;47.02;102421.63;5019450;28;46261;-70
2022/07/09 08:28:53;;;;;;;;;7.00;7.00;;;;;23.62;47.18;102428.41;5020793;28;45184;-70
2022/07/09 08:31:20;;;;;;;;;7.75;6.25;;;;;23.61;46.88;102412.97;5020234;28;45269;-68
2022/07/09 08:33:46;;;;;;;;;6.00;6.00;;;;;23.70;47.07;102420.50;5020689;28;45332;-70
2022/07/09 08:36:11;;;;;;;;;5.50;5.50;;;;;23.70;46.64;102406.78;5020238;28;45785;-69
2022/07/09 08:38:37;;;;;;;;;6.25;6.25;;;;;23.82;46.84;102418.69;5020398;28;45350;-69
2022/07/09 08:41:05;;;;;;;;;7.75;7.75;;;;;23.86;45.68;102413.84;5019114;28;45350;-70
2022/07/09 08:43:37;;;;;;;;;6.50;6.50;;;;;23.84;45.99;102413.97;5020480;28;45219;-70
2022/07/09 08:46:04;;;;;;;;;5.75;5.75;;;;;23.89;45.93;102420.00;5020071;28;45984;-69
2022/07/09 08:48:36;;;;;;;;;5.00;5.00;;;;;23.94;45.86;102409.53;5020462;28;45332;-70
2022/07/09 08:51:03;;;;;;;;;4.25;4.25;;;;;24.00;45.82;102411.81;5020177;28;45343;-69
2022/07/09 08:53:29;;;;;;;;;5.25;5.25;;;;;24.06;45.73;102414.09;5019894;28;45610;-69
2022/07/09 08:55:55;;;;;;;;;1.25;1.00;;;;;24.07;45.72;102404.03;5019892;28;46359;-70
2022/07/09 08:58:21;;;;;;;;;4.50;4.50;;;;;24.09;45.55;102411.09;5020335;28;45402;-69
2022/07/09 09:00:49;;;;;;;;;4.50;4.50;;;;;24.11;45.00;102403.66;5020293;28;45316;-69
2022/07/09 09:03:15;;;;;;;;;4.25;3.00;;;;;24.14;45.70;102403.44;5024089;28;45525;-69
2022/07/09 09:05:40;;;;;;;;;5.00;5.00;;;;;24.17;45.38;102393.19;5034404;28;45425;-69
2022/07/09 09:08:19;;;;;;;;;5.50;5.00;;;;;24.20;45.29;102388.38;5019915;28;45348;-70
2022/07/09 09:10:47;;;;;;;;;4.25;4.25;;;;;24.28;44.93;102393.28;5020374;28;45229;-70
2022/07/09 09:13:16;;;;;;;;;6.25;5.00;;;;;24.32;44.61;102378.38;5019857;28;45280;-69
2022/07/09 09:15:42;;;;;;;;;6.00;6.00;;;;;24.37;44.47;102396.19;5020184;28;45324;-71
2022/07/09 09:18:08;;;;;;;;;5.25;5.25;;;;;24.37;43.91;102392.56;5019901;28;45399;-69
2022/07/09 09:20:34;;;;;;;;;4.50;4.50;;;;;24.36;43.87;102388.09;5016874;28;45351;-70
2022/07/09 09:23:00;;;;;;;;;4.25;3.75;;;;;24.37;44.40;102392.56;5016252;28;45330;-70
2022/07/09 09:25:26;;;;;;;;;6.00;4.50;;;;;24.31;43.99;102373.88;5016757;28;47206;-70
2022/07/09 09:27:59;;;;;;;;;5.25;5.00;;;;;24.36;43.78;102380.72;5016443;28;45183;-69
2022/07/09 09:30:26;;;;;;;;;5.00;5.00;;;;;24.38;44.10;102388.84;5016911;28;45518;-70
2022/07/09 09:33:09;;;;;;;;;5.00;5.00;;;;;24.35;44.19;102369.88;5016107;28;45724;-70
2022/07/09 09:35:41;;;;;;;;;3.00;3.00;;;;;24.34;43.69;102369.00;5015002;28;46678;-69
2022/07/09 09:38:07;;;;;;;;;4.25;4.25;;;;;24.45;43.86;102384.63;5015843;28;45382;-70
2022/07/09 09:40:32;;;;;;;;;4.25;4.25;;;;;24.41;44.23;102383.13;5016515;28;45343;-70
2022/07/09 09:43:01;;;;;;;;;6.00;5.00;;;;;24.54;43.50;102389.38;5016412;28;45237;-71
2022/07/09 09:45:27;;;;;;;;;4.25;3.50;;;;;24.57;43.95;102400.13;5016651;28;46342;-70
2022/07/09 09:47:53;;;;;;;;;5.00;5.00;;;;;24.59;43.69;102397.22;5016225;28;45391;-69
2022/07/09 09:50:21;;;;;;;;;5.00;5.00;;;;;24.60;43.92;102386.16;5016537;28;45162;-69
2022/07/09 09:52:47;;;;;;;;;6.25;4.75;;;;;24.65;43.73;102388.53;5015568;28;45520;-70
2022/07/09 09:55:14;;;;;;;;;5.00;5.00;;;;;24.71;43.52;102391.66;5016216;28;46991;-70
2022/07/09 09:57:40;;;;;;;;;4.50;4.50;;;;;24.73;43.92;102397.03;5016167;28;45235;-71
2022/07/09 10:00:06;;;;;;;;;4.50;4.50;;;;;24.74;43.71;102396.03;5016319;28;45376;-70
2022/07/09 10:02:33;;;;;;;;;5.75;5.75;;;;;24.73;43.54;102394.28;5015926;28;45333;-70
2022/07/09 10:04:59;;;;;;;;;5.25;5.25;;;;;24.68;43.18;102382.78;5033878;28;46184;-70
2022/07/09 10:07:25;;;;;;;;;6.25;5.50;;;;;24.74;43.75;102394.19;5016183;28;45395;-69
2022/07/09 10:09:58;;;;;;;;;5.75;4.75;;;;;24.75;43.71;102384.91;5015945;28;45610;-70
2022/07/09 10:12:27;;;;;;;;;4.25;4.25;;;;;24.82;43.59;102380.72;5016088;28;45616;-68
2022/07/09 10:14:53;;;;;;;;;5.00;5.00;;;;;24.88;43.63;102380.22;5015779;28;46027;-69
2022/07/09 10:17:18;;;;;;;;;6.50;3.75;;;;;24.86;43.33;102378.59;5016160;28;45360;-70
2022/07/09 10:19:54;;;;;;;;;7.00;5.75;;;;;24.90;43.72;102385.59;5016223;28;45290;-69
2022/07/09 10:22:20;;;;;;;;;6.25;5.00;;;;;24.91;43.72;102386.47;5015780;28;45985;-70
2022/07/09 10:24:48;;;;;;;;;5.50;5.50;;;;;24.88;43.91;102372.00;5014661;28;46416;-69
2022/07/09 10:27:14;;;;;;;;;5.00;5.00;;;;;25.00;43.58;102375.66;5015557;28;45439;-70
2022/07/09 10:29:56;;;;;;;;;4.00;4.00;;;;;25.04;43.64;102385.38;5015255;28;46071;-70
2022/07/09 10:32:32;;;;;;;;;5.00;5.00;;;;;25.06;43.95;102377.03;5014914;28;45484;-69
2022/07/09 10:35:06;;;;;;;;;4.00;4.00;;;;;25.10;43.93;102371.16;5015241;28;46302;-70
2022/07/09 10:37:36;;;;;;;;;5.75;5.75;;;;;25.18;43.23;102365.03;5014959;28;45478;-69
2022/07/09 10:40:21;;;;;;;;;6.25;3.75;;;;;25.21;43.16;102364.78;5015379;28;45382;-69
2022/07/09 10:43:02;;;;;;;;;4.25;3.50;;;;;25.34;42.71;102372.91;5010779;28;45492;-69
2022/07/09 10:45:35;;;;;;;;;5.50;4.50;;;;;25.41;42.97;102353.03;5015220;28;46285;-69
2022/07/09 10:48:03;;;;;;;;;4.50;4.25;;;;;25.47;43.07;102354.38;5013857;28;46353;-70
2022/07/09 10:50:31;;;;;;;;;4.00;4.00;;;;;25.53;42.80;102362.09;5015231;28;45336;-68
2022/07/09 10:52:59;;;;;;;;;5.00;4.00;;;;;25.56;42.96;102351.75;5015063;28;45383;-69
2022/07/09 10:55:27;;;;;;;;;8.50;4.75;;;;;25.57;42.81;102334.28;5014812;28;47141;-70
2022/07/09 10:57:53;;;;;;;;;5.50;4.50;;;;;25.67;42.51;102350.03;5015325;28;45487;-71
2022/07/09 11:00:21;;;;;;;;;3.75;3.75;;;;;25.69;42.53;102342.53;5015094;28;45241;-70
2022/07/09 11:02:56;;;;;;;;;4.75;4.75;;;;;25.72;42.02;102345.88;5013616;28;46395;-69
2022/07/09 11:05:25;;;;;;;;;3.50;3.50;;;;;25.79;41.35;102335.22;5031619;28;45358;-68
2022/07/09 11:07:54;;;;;;;;;0.00;0.00;;;;;25.89;41.37;102325.19;5014805;28;45289;-70
2022/07/09 11:10:20;;;;;;;;;3.25;2.50;;;;;25.93;41.50;102326.69;5014446;28;45463;-69
2022/07/09 11:12:49;;;;;;;;;4.00;4.00;;;;;25.96;41.67;102329.16;5015073;28;45421;-71
2022/07/09 11:15:19;;;;;;;;;4.50;4.50;;;;;25.83;41.73;102317.50;5015004;28;45400;-71
2022/07/09 11:17:54;;;;;;;;;6.75;5.00;;;;;25.86;41.65;102317.25;5013375;28;45376;-73
2022/07/09 11:20:19;;;;;;;;;3.75;3.75;;;;;25.86;41.18;102315.34;5010860;28;45746;-75
2022/07/09 11:22:48;;;;;;;;;5.00;4.50;;;;;25.91;41.11;102321.31;5009863;28;45568;-73
2022/07/09 11:25:15;;;;;;;;;4.00;4.00;;;;;25.90;41.17;102322.31;5014520;28;46408;-74
2022/07/09 11:27:41;;;;;;;;;6.25;5.75;;;;;25.92;41.51;102312.09;5030002;28;45456;-75
2022/07/09 11:30:07;;;;;;;;;6.50;6.50;;;;;25.99;40.98;102323.41;5014577;28;45448;-73
2022/07/09 11:32:32;;;;;;;;;5.00;5.00;;;;;26.02;40.88;102311.28;5014379;28;45253;-74
2022/07/09 11:34:58;;;;;;;;;5.75;4.50;;;;;26.03;41.20;102313.03;5014181;28;46188;-74
2022/07/09 11:37:27;;;;;;;;;5.75;5.75;;;;;26.06;40.91;102297.13;5014137;28;45232;-73
2022/07/09 11:39:53;;;;;;;;;9.00;6.25;;;;;26.05;41.28;102303.63;5014758;28;45399;-74
2022/07/09 11:42:19;;;;;;;;;4.00;4.00;;;;;26.02;40.95;102289.31;5014266;28;45790;-73
2022/07/09 11:44:54;;;;;;;;;4.75;4.75;;;;;26.17;41.04;102297.09;5013990;28;46088;-73
2022/07/09 11:47:22;;;;;;;;;5.50;5.50;;;;;26.19;39.98;102302.44;5014481;28;45375;-74
2022/07/09 11:49:50;;;;;;;;;6.00;6.00;;;;;26.19;40.23;102291.47;5015030;28;45263;-73
2022/07/09 11:52:19;;;;;;;;;5.50;4.75;;;;;26.36;40.70;102291.75;5013976;28;45554;-74
2022/07/09 11:54:55;;;;;;;;;7.00;6.50;;;;;26.43;39.64;102288.44;5014215;28;46075;-73
2022/07/09 11:57:22;;;;;;;;;7.25;5.75;;;;;26.43;39.50;102291.19;5013707;28;45399;-73
2022/07/09 11:59:47;;;;;;;;;7.00;6.50;;;;;26.52;39.89;102294.00;5014465;28;45344;-72
2022/07/09 12:02:23;;;;;;;;;5.75;5.75;;;;;26.50;39.38;102284.16;5014159;28;46731;-74
2022/07/09 12:04:48;;;;;;;;;4.75;4.75;;;;;26.65;38.93;102291.03;5009377;28;46237;-74
2022/07/09 12:07:13;;;;;;;;;7.75;6.50;;;;;26.74;39.30;102281.94;5006140;28;45531;-74
2022/07/09 12:09:39;;;;;;;;;8.00;7.00;;;;;26.87;38.51;102278.97;5014589;28;45507;-73
2022/07/09 12:12:04;;;;;;;;;6.00;4.75;;;;;26.95;38.63;102277.31;5014173;28;45501;-76
2022/07/09 12:14:30;;;;;;;;;6.25;5.25;;;;;27.03;38.15;102266.47;5014671;28;46107;-73
2022/07/09 12:16:57;;;;;;;;;7.00;5.50;;;;;27.10;37.71;102266.75;5014286;28;48127;-73
2022/07/09 12:19:23;;;;;;;;;6.50;5.25;;;;;27.01;38.37;102256.59;5014373;28;45339;-73
2022/07/09 12:21:48;;;;;;;;;5.00;5.00;;;;;27.17;38.09;102262.44;5013746;28;45544;-76
2022/07/09 12:24:13;;;;;;;;;6.00;6.00;;;;;27.22;38.39;102262.03;5013845;28;47034;-74
2022/07/09 12:26:39;;;;;;;;;5.00;5.00;;;;;27.34;38.19;102267.25;5014034;28;45471;-72
2022/07/09 12:29:04;;;;;;;;;5.00;4.25;;;;;27.33;37.75;102257.25;5014492;28;45482;-77
2022/07/09 12:31:29;;;;;;;;;4.00;4.00;;;;;27.45;37.01;102267.13;5013822;28;45634;-73
2022/07/09 12:33:55;;;;;;;;;6.00;6.00;;;;;27.46;36.87;102260.59;5012705;28;46241;-72
2022/07/09 12:36:21;;;;;;;;;5.50;5.00;;;;;27.61;37.01;102261.06;5014400;28;45288;-74
2022/07/09 12:38:46;;;;;;;;;1.75;1.75;;;;;27.60;37.11;102247.44;5014099;28;45376;-74
2022/07/09 12:41:11;;;;;;;;;3.75;3.75;;;;;27.80;36.55;102254.69;5013832;28;45359;-73
2022/07/09 12:43:37;;;;;;;;;5.50;5.00;;;;;27.81;36.24;102234.41;5013885;28;46025;-74
2022/07/09 12:46:02;;;;;;;;;7.50;7.50;;;;;27.85;36.65;102242.22;5014002;28;45197;-74
2022/07/09 12:48:27;;;;;;;;;5.25;5.25;;;;;27.89;36.63;102250.19;5014218;28;45479;-74
2022/07/09 12:50:53;;;;;;;;;4.25;4.25;;;;;27.89;36.27;102245.56;5013794;28;45382;-73
2022/07/09 12:53:18;;;;;;;;;6.75;4.75;;;;;27.85;36.49;102246.84;5013569;28;46422;-73
2022/07/09 12:55:44;;;;;;;;;5.00;4.00;;;;;27.86;35.94;102232.94;5015181;28;45426;-74
2022/07/09 12:58:09;;;;;;;;;5.00;5.00;;;;;27.87;35.88;102214.50;5016047;28;45360;-74
2022/07/09 13:00:35;;;;;;;;;7.00;7.00;;;;;28.07;35.86;102215.34;5017121;28;45631;-75
2022/07/09 13:03:00;;;;;;;;;5.00;5.00;;;;;28.18;35.63;102235.38;5019091;28;45388;-72
2022/07/09 13:05:25;;;;;;;;;5.25;5.25;;;;;28.24;35.39;102225.66;5033461;28;45337;-73
2022/07/09 13:07:51;;;;;;;;;5.00;5.00;;;;;28.44;35.47;102215.41;5016905;28;45312;-72
2022/07/09 13:10:16;;;;;;;;;5.75;5.75;;;;;28.47;35.42;102213.22;5017031;28;45590;-73
2022/07/09 13:12:41;;;;;;;;;5.75;5.75;;;;;28.65;34.61;102216.03;5017266;28;46310;-73
2022/07/09 13:15:07;;;;;;;;;6.00;6.00;;;;;28.71;34.83;102217.31;5017265;28;45245;-73
2022/07/09 13:17:32;;;;;;;;;5.50;5.50;;;;;28.76;34.68;102212.19;5017517;28;45430;-73
2022/07/09 13:19:58;;;;;;;;;4.75;4.50;;;;;28.81;34.40;102196.09;5017224;28;45303;-74
2022/07/09 13:22:24;;;;;;;;;5.75;5.75;;;;;28.90;34.16;102201.56;5016467;28;45397;-73
2022/07/09 13:24:49;;;;;;;;;7.00;5.25;;;;;28.97;34.33;102199.91;5016829;28;45407;-75
2022/07/09 13:27:18;;;;;;;;;5.75;5.75;;;;;29.17;33.86;102199.78;5017124;28;45374;-73
2022/07/09 13:29:43;;;;;;;;;7.50;6.00;;;;;29.27;33.81;102193.16;5016718;28;45534;-73
2022/07/09 13:32:09;;;;;;;;;3.75;3.75;;;;;29.30;33.92;102184.56;5016616;28;45502;-74
2022/07/09 13:34:34;;;;;;;;;6.25;5.75;;;;;29.35;33.13;102184.97;5016685;28;45246;-75
2022/07/09 13:37:00;;;;;;;;;7.75;6.00;;;;;29.43;33.15;102175.91;5016786;28;45470;-76
2022/07/09 13:39:25;;;;;;;;;7.25;7.25;;;;;29.56;32.75;102183.78;5015964;28;45285;-74
2022/07/09 13:41:51;;;;;;;;;6.75;5.25;;;;;29.66;33.47;102177.16;5015694;28;46055;-74
2022/07/09 13:44:16;;;;;;;;;4.75;4.75;;;;;29.89;32.63;102173.84;5015713;28;46291;-73
2022/07/09 13:46:41;;;;;;;;;6.00;6.00;;;;;30.01;30.56;102167.94;5016461;28;45303;-73
2022/07/09 13:49:07;;;;;;;;;5.75;5.75;;;;;30.17;31.99;102172.72;5016315;28;45574;-75
2022/07/09 13:51:33;;;;;;;;;5.75;5.00;;;;;29.81;32.46;102168.28;5016095;28;50338;-75
2022/07/09 13:53:59;;;;;;;;;7.00;7.00;;;;;29.55;32.21;102177.41;5016027;28;45505;-77
2022/07/09 13:56:24;;;;;;;;;10.00;7.00;;;;;29.32;32.85;102173.34;5012528;28;45444;-76
2022/07/09 13:58:49;;;;;;;;;6.25;6.00;;;;;29.29;32.98;102162.59;5012959;28;45422;-76
2022/07/09 14:01:15;;;;;;;;;7.75;6.75;;;;;29.35;32.69;102162.88;5014667;28;45530;-76
2022/07/09 14:03:41;;;;;;;;;8.25;5.50;;;;;29.29;32.65;102160.72;5016420;28;45301;-76
2022/07/09 14:06:06;;;;;;;;;6.00;6.00;;;;;29.06;33.70;102164.09;5027499;28;45296;-76
2022/07/09 14:08:32;;;;;;;;;6.00;5.00;;;;;28.88;33.81;102155.78;5016292;28;45309;-76
2022/07/09 14:10:57;;;;;;;;;0.00;0.00;;;;;28.85;33.83;102147.81;5016225;28;46564;-75
2022/07/09 14:13:26;;;;;;;;;5.50;5.50;;;;;28.94;33.38;102144.13;5016055;28;45336;-76
2022/07/09 14:15:55;;;;;;;;;6.50;5.75;;;;;28.81;33.69;102130.72;5016810;28;45444;-76
2022/07/09 14:18:21;;;;;;;;;4.75;4.75;;;;;28.90;33.18;102131.66;5016007;28;45512;-77
2022/07/09 14:20:47;;;;;;;;;5.25;4.50;;;;;28.85;33.20;102136.78;5016054;28;45899;-76
2022/07/09 14:23:12;;;;;;;;;5.25;3.75;;;;;28.73;33.61;102147.16;5015576;28;45192;-75
2022/07/09 14:25:37;;;;;;;;;4.75;4.75;;;;;28.70;33.41;102141.06;5014754;28;45637;-77
2022/07/09 14:28:03;;;;;;;;;5.00;5.00;;;;;28.83;33.92;102134.19;5015699;28;45577;-76
2022/07/09 14:30:28;;;;;;;;;3.25;3.25;;;;;28.85;32.89;102125.72;5016061;28;46490;-77
2022/07/09 14:32:54;;;;;;;;;5.00;5.00;;;;;28.90;32.91;102128.91;5015480;28;45503;-76
2022/07/09 14:35:19;;;;;;;;;4.25;3.75;;;;;29.08;32.90;102131.69;5016256;28;45547;-76
2022/07/09 14:37:44;;;;;;;;;4.25;4.25;;;;;29.07;32.84;102132.72;5015461;28;45317;-77
2022/07/09 14:40:10;;;;;;;;;6.00;5.00;;;;;28.85;32.68;102122.97;5015791;28;45447;-77
2022/07/09 14:42:35;;;;;;;;;5.00;5.00;;;;;28.62;33.90;102128.03;5015696;28;45386;-77
2022/07/09 14:45:01;;;;;;;;;5.25;5.25;;;;;28.49;33.47;102122.88;5016190;28;45406;-77
2022/07/09 14:47:26;;;;;;;;;4.00;4.00;;;;;28.50;33.19;102107.19;5015725;28;45308;-77
2022/07/09 14:49:54;;;;;;;;;5.25;5.25;;;;;28.69;33.40;102107.06;5015913;28;46074;-77
2022/07/09 14:52:19;;;;;;;;;6.00;5.25;;;;;28.77;33.35;102126.50;5015351;28;45406;-77
2022/07/09 14:54:45;;;;;;;;;4.75;4.75;;;;;28.53;33.75;102120.66;5015863;28;45521;-77
2022/07/09 14:57:10;;;;;;;;;5.25;5.25;;;;;28.44;34.21;102129.88;5015588;28;45518;-76
2022/07/09 14:59:36;;;;;;;;;5.00;5.00;;;;;28.52;33.98;102128.09;5015818;28;45916;-75
2022/07/09 15:02:01;;;;;;;;;5.50;5.50;;;;;28.58;33.71;102123.84;5015499;28;45181;-74
2022/07/09 15:04:27;;;;;;;;;4.00;3.00;;;;;28.47;34.05;102121.28;5029104;28;45407;-75
2022/07/09 15:06:52;;;;;;;;;5.00;5.00;;;;;28.39;34.19;102122.06;5020227;28;45237;-76
2022/07/09 15:09:17;;;;;;;;;5.00;5.00;;;;;28.18;34.19;102116.78;5015420;28;46027;-74
2022/07/09 15:11:43;;;;;;;;;5.00;5.00;;;;;28.04;34.72;102128.28;5014777;28;45434;-73
2022/07/09 15:14:08;;;;;;;;;5.25;5.25;;;;;27.90;35.11;102126.00;5016059;28;45309;-77
2022/07/09 15:16:34;;;;;;;;;5.25;4.00;;;;;27.91;34.98;102122.22;5014494;28;45746;-73
2022/07/09 15:18:59;;;;;;;;;7.50;6.00;;;;;27.89;34.85;102117.88;5014656;28;46236;-74
2022/07/09 15:21:27;;;;;;;;;4.00;4.00;;;;;28.11;34.75;102123.03;5014841;28;45324;-74
2022/07/09 15:23:53;;;;;;;;;4.75;4.75;;;;;28.29;34.10;102118.47;5014778;28;45465;-74
2022/07/09 15:26:18;;;;;;;;;4.00;4.00;;;;;28.23;33.84;102106.19;5011832;28;45581;-72
2022/07/09 15:28:43;;;;;;;;;4.00;4.00;;;;;28.18;34.10;102108.50;5012384;28;46121;-76
2022/07/09 15:31:09;;;;;;;;;5.75;5.75;;;;;28.32;34.09;102114.56;5014931;28;45331;-75
2022/07/09 15:33:35;;;;;;;;;5.00;5.00;;;;;28.42;34.12;102112.59;4998609;28;45368;-75
2022/07/09 15:36:00;;;;;;;;;4.00;3.00;;;;;28.85;33.82;102096.22;4993941;28;45417;-76
2022/07/09 15:38:26;;;;;;;;;5.00;5.00;;;;;29.06;33.25;102108.88;4993382;28;46230;-75
2022/07/09 15:40:51;;;;;;;;;4.75;4.00;;;;;29.16;33.12;102101.38;4994177;28;45207;-76
2022/07/09 15:43:16;;;;;;;;;9.50;6.00;;;;;29.49;32.92;102092.38;4996549;28;45226;-78
2022/07/09 15:45:43;;;;;;;;;4.25;4.00;;;;;29.56;32.40;102092.59;4995511;28;45345;-78
2022/07/09 15:48:09;;;;;;;;;6.75;6.75;;;;;29.43;33.04;102092.16;4993177;28;45447;-79
2022/07/09 15:50:35;;;;;;;;;4.00;4.00;;;;;29.69;31.75;102095.78;4992136;28;45439;-78
2022/07/09 15:53:01;;;;;;;;;4.00;4.00;;;;;29.93;31.01;102082.13;4994154;28;45421;-78
2022/07/09 15:55:26;;;;;;;;;8.50;5.50;;;;;30.19;30.88;102086.78;4993779;28;45444;-79